Terminal Aerodrome Forecast
Issued by NWS Sterling, VA

Current Version | Previous Version | Text Only | Print | Product List | Glossary Off
Versions: 1 2 3 4 5 6 7 8 9 10 11 12 13 14 15 16 17 18 19 20 21 22

300
FTUS41 KLWX 192121 AAB
TAFIAD
TAF AMD
KIAD 192121Z 1921/2024 30022G35KT P6SM SCT050
     FM200200 31014G27KT P6SM FEW250
     FM200600 31010G20KT P6SM FEW250
     FM201400 32014G27KT P6SM FEW250
     FM202200 33013G20KT P6SM FEW250=

USA.gov is the U.S. government's official web portal to all federal, state and local government web resources and services.